Time;durP1;ratioP1;P1;durP2;ratioP2;P2;SDS_P1;SDS_P2;PMS_P1;PMS_P2;Temp;Humidity;BMP_temperature;BMP_pressure;BME280_temperature;BME280_humidity;BME280_pressure;Samples;Min_cycle;Max_cycle;Signal;HPM_P1;HPM_P2
2023/01/29 00:00:16;;;;;;;16.90;9.30;;;;;;;-0.84;71.21;101577.80;107625;1253;107484;-61
2023/01/29 00:03:05;;;;;;;14.20;8.90;;;;;;;-0.87;71.24;101580.00;107588;1253;99288;-60
2023/01/29 00:05:34;;;;;;;16.60;9.00;;;;;;;-0.87;71.36;101582.83;107476;1254;99698;-59
2023/01/29 00:08:02;;;;;;;15.50;9.30;;;;;;;-0.87;71.52;101580.89;107569;1254;113345;-61
2023/01/29 00:10:30;;;;;;;20.50;9.20;;;;;;;-0.86;71.71;101582.09;107556;1254;109409;-61
2023/01/29 00:12:59;;;;;;;18.70;8.70;;;;;;;-0.83;71.94;101583.41;107590;1252;108878;-59
2023/01/29 00:15:27;;;;;;;14.60;8.00;;;;;;;-0.82;71.85;101588.48;107524;1255;99300;-59
2023/01/29 00:17:55;;;;;;;15.00;8.90;;;;;;;-0.81;71.98;101590.20;107583;1254;99283;-60
2023/01/29 00:20:24;;;;;;;16.70;8.10;;;;;;;-0.79;71.98;101587.34;107583;1253;112951;-60
2023/01/29 00:22:52;;;;;;;14.10;8.30;;;;;;;-0.74;72.13;101591.80;107579;1256;108850;-59
2023/01/29 00:25:21;;;;;;;15.80;8.30;;;;;;;-0.69;72.36;101592.70;107554;1254;108309;-59
2023/01/29 00:27:49;;;;;;;14.60;8.20;;;;;;;-0.61;72.55;101594.06;107588;1253;99167;-60
2023/01/29 00:30:18;;;;;;;18.70;9.40;;;;;;;-0.52;72.71;101595.56;107610;1253;99311;-59
2023/01/29 00:32:47;;;;;;;13.70;7.70;;;;;;;-0.48;72.41;101591.75;107727;1254;112707;-61
2023/01/29 00:35:15;;;;;;;16.30;8.60;;;;;;;-0.49;71.98;101587.89;107658;1254;109932;-59
2023/01/29 00:37:44;;;;;;;16.40;8.90;;;;;;;-0.52;71.70;101592.39;107651;1252;108484;-60
2023/01/29 00:40:12;;;;;;;14.60;9.60;;;;;;;-0.56;71.55;101594.79;107629;1251;99249;-60
2023/01/29 00:45:32;;;;;;;25.30;12.10;;;;;;;-0.64;71.23;101595.01;107633;1253;113214;-60
2023/01/29 00:48:00;;;;;;;12.50;8.10;;;;;;;-0.68;71.39;101591.43;107591;1254;109923;-59
2023/01/29 00:50:30;;;;;;;15.70;8.60;;;;;;;-0.70;71.27;101593.07;107503;1254;108704;-59
2023/01/29 00:52:58;;;;;;;11.40;8.10;;;;;;;-0.72;71.19;101596.82;107634;1254;99311;-60
2023/01/29 00:55:26;;;;;;;17.90;8.40;;;;;;;-0.72;71.35;101600.21;107570;1254;99717;-59
2023/01/29 00:57:55;;;;;;;14.20;8.80;;;;;;;-0.75;71.02;101600.44;107650;1253;112628;-61
2023/01/29 01:00:24;;;;;;;19.50;8.90;;;;;;;-0.79;71.17;101599.50;107488;1254;109120;-59
2023/01/29 01:03:05;;;;;;;14.70;8.70;;;;;;;-0.83;71.31;101605.08;107578;1256;108192;-63
2023/01/29 01:05:41;;;;;;;20.10;10.00;;;;;;;-0.86;71.26;101601.09;107475;1258;99898;-61
2023/01/29 01:11:06;;;;;;;16.40;9.00;;;;;;;-0.88;71.52;101599.91;107653;1253;113224;-59
2023/01/29 01:13:34;;;;;;;13.00;8.00;;;;;;;-0.87;71.39;101600.08;107517;1253;109749;-60
2023/01/29 01:16:11;;;;;;;17.40;8.70;;;;;;;-0.87;71.43;101599.20;107513;1256;108749;-62
2023/01/29 01:18:40;;;;;;;20.10;9.50;;;;;;;-0.88;71.46;101600.45;107594;1254;99277;-60
2023/01/29 01:21:08;;;;;;;14.70;8.00;;;;;;;-0.88;71.49;101600.09;107593;1256;99723;-61
2023/01/29 01:23:37;;;;;;;17.90;8.80;;;;;;;-0.88;71.74;101602.21;107488;1253;113061;-60
2023/01/29 01:26:08;;;;;;;17.70;9.10;;;;;;;-0.87;72.07;101603.93;107570;1254;109572;-60
2023/01/29 01:28:36;;;;;;;17.30;8.50;;;;;;;-0.87;72.10;101606.08;107673;1254;106561;-59
2023/01/29 01:31:13;;;;;;;14.30;8.60;;;;;;;-0.85;72.28;101606.54;107580;1255;99339;-59
2023/01/29 01:33:41;;;;;;;13.60;8.40;;;;;;;-0.82;72.39;101608.39;107476;1252;99181;-61
2023/01/29 01:36:09;;;;;;;14.60;7.80;;;;;;;-0.80;72.47;101605.00;107529;1253;113453;-59
2023/01/29 01:38:43;;;;;;;14.20;8.40;;;;;;;-0.77;72.60;101611.43;107638;1253;110134;-60
2023/01/29 01:41:14;;;;;;;16.90;8.00;;;;;;;-0.77;72.05;101610.02;107553;1254;106062;-59
2023/01/29 01:43:56;;;;;;;14.20;8.10;;;;;;;-0.76;72.22;101615.98;107602;1252;99320;-59
2023/01/29 01:46:28;;;;;;;18.80;8.00;;;;;;;-0.74;72.26;101617.50;107638;1253;99044;-60
2023/01/29 01:49:03;;;;;;;12.60;7.60;;;;;;;-0.73;72.03;101618.89;107527;1253;112652;-59
2023/01/29 01:51:35;;;;;;;18.90;8.40;;;;;;;-0.74;71.74;101619.61;107453;1254;110897;-60
2023/01/29 01:54:07;;;;;;;15.80;7.60;;;;;;;-0.77;71.36;101620.91;107625;1253;107689;-60
2023/01/29 01:56:43;;;;;;;13.70;8.10;;;;;;;-0.79;71.04;101624.85;107623;1254;99185;-59
2023/01/29 01:59:15;;;;;;;15.10;8.60;;;;;;;-0.83;70.83;101624.98;107626;1254;99803;-59
2023/01/29 02:01:49;;;;;;;14.60;7.80;;;;;;;-0.88;70.36;101630.05;107601;1254;113724;-59
2023/01/29 02:10:12;;;;;;;15.50;8.00;;;;;;;-1.05;70.76;101638.76;107483;1252;99727;-61
2023/01/29 02:12:43;;;;;;;16.40;8.80;;;;;;;-1.08;70.86;101639.89;107619;1252;99060;-61
2023/01/29 02:15:11;;;;;;;17.70;9.90;;;;;;;-1.10;70.95;101639.95;107601;1254;112264;-59
2023/01/29 02:17:40;;;;;;;16.90;9.00;;;;;;;-1.12;70.68;101636.10;107619;1254;110008;-60
2023/01/29 02:20:08;;;;;;;17.00;10.00;;;;;;;-1.15;70.80;101638.66;107578;1254;108618;-59
2023/01/29 02:23:01;;;;;;;16.90;10.60;;;;;;;-1.17;70.97;101643.45;107601;1254;99224;-59
2023/01/29 02:26:25;;;;;;;15.00;8.20;;;;;;;-1.22;70.70;101646.77;107574;1253;99226;-59
2023/01/29 02:29:21;;;;;;;15.90;9.20;;;;;;;-1.29;70.64;101644.47;107594;1254;113367;-63
2023/01/29 02:32:19;;;;;;;22.20;10.60;;;;;;;-1.33;70.85;101643.85;107668;1253;108781;-60
2023/01/29 02:38:14;;;;;;;14.90;8.80;;;;;;;-1.33;71.14;101650.90;107643;1254;99183;-59
2023/01/29 02:40:51;;;;;;;20.10;10.30;;;;;;;-1.29;71.20;101649.38;107680;1252;99188;-59
2023/01/29 02:43:34;;;;;;;18.90;9.40;;;;;;;-1.26;71.27;101647.02;107632;1254;113199;-59
2023/01/29 02:46:30;;;;;;;18.90;10.00;;;;;;;-1.21;71.15;101647.63;107403;1253;109745;-60
2023/01/29 02:49:05;;;;;;;16.90;9.50;;;;;;;-1.20;70.92;101648.64;107520;1254;108499;-59
2023/01/29 02:51:39;;;;;;;22.30;9.90;;;;;;;-1.20;70.83;101653.04;107619;1255;99192;-60
2023/01/29 02:54:19;;;;;;;19.40;10.00;;;;;;;-1.21;70.86;101648.84;107666;1254;100859;-58
2023/01/29 02:56:59;;;;;;;27.80;13.50;;;;;;;-1.19;70.67;101651.80;107601;1253;113600;-60
2023/01/29 02:59:38;;;;;;;18.70;10.40;;;;;;;-1.21;70.65;101659.05;107501;1253;109982;-59
2023/01/29 03:02:12;;;;;;;23.90;11.30;;;;;;;-1.23;70.66;101664.04;107558;1254;108692;-59
2023/01/29 03:04:49;;;;;;;22.20;11.40;;;;;;;-1.24;70.83;101666.52;107606;1256;99170;-59
2023/01/29 03:07:45;;;;;;;22.00;11.50;;;;;;;-1.27;70.28;101670.83;107637;1254;99726;-59
2023/01/29 03:10:55;;;;;;;18.20;10.40;;;;;;;-1.34;70.33;101669.94;107594;1253;112715;-60
2023/01/29 03:13:41;;;;;;;18.90;9.80;;;;;;;-1.43;69.95;101669.45;107405;1254;109811;-63
2023/01/29 03:16:19;;;;;;;17.80;10.40;;;;;;;-1.50;69.87;101665.56;107482;1253;108467;-59
2023/01/29 03:19:04;;;;;;;16.80;9.80;;;;;;;-1.58;70.07;101671.38;107684;1253;99214;-60
2023/01/29 03:33:28;;;;;;;21.90;11.70;;;;;;;-1.74;70.71;101671.40;107558;1252;99292;-60
2023/01/29 03:36:15;;;;;;;25.30;11.70;;;;;;;-1.76;71.11;101674.77;107436;1254;99694;-60
2023/01/29 03:38:44;;;;;;;21.10;11.00;;;;;;;-1.79;71.01;101674.14;107451;1254;113802;-60
2023/01/29 03:41:31;;;;;;;18.80;10.30;;;;;;;-1.80;71.15;101676.11;107610;1253;109808;-59
2023/01/29 03:44:02;;;;;;;19.30;10.70;;;;;;;-1.77;71.47;101678.14;107422;1258;107265;-59
2023/01/29 03:46:40;;;;;;;18.60;10.60;;;;;;;-1.72;71.57;101677.88;107619;1254;99278;-59
2023/01/29 03:49:28;;;;;;;18.30;10.20;;;;;;;-1.63;72.06;101680.81;107495;1253;99156;-58
2023/01/29 03:52:17;;;;;;;21.80;11.60;;;;;;;-1.56;72.12;101680.48;107598;1254;113509;-60
2023/01/29 03:55:05;;;;;;;19.40;10.10;;;;;;;-1.47;71.98;101678.52;107470;1257;109662;-61
2023/01/29 03:57:56;;;;;;;23.60;10.80;;;;;;;-1.44;71.76;101676.69;107458;1254;108323;-60
2023/01/29 04:00:39;;;;;;;19.60;9.80;;;;;;;-1.43;71.36;101674.54;107626;1253;99176;-61
2023/01/29 04:03:16;;;;;;;17.00;10.10;;;;;;;-1.42;71.25;101672.23;107659;1253;99241;-61
2023/01/29 04:05:57;;;;;;;18.60;10.60;;;;;;;-1.43;71.01;101672.26;107464;1253;112881;-58
2023/01/29 04:08:35;;;;;;;19.80;10.20;;;;;;;-1.48;70.65;101675.55;107570;1255;109645;-61
2023/01/29 04:11:10;;;;;;;19.60;10.50;;;;;;;-1.51;70.97;101677.19;107653;1253;108822;-60
2023/01/29 04:13:39;;;;;;;23.80;10.80;;;;;;;-1.51;70.77;101673.16;107651;1253;99232;-60
2023/01/29 04:16:15;;;;;;;16.30;9.60;;;;;;;-1.52;70.73;101674.40;107491;1254;99253;-59
2023/01/29 04:19:02;;;;;;;22.40;10.90;;;;;;;-1.54;70.73;101671.46;107488;1256;112032;-61
2023/01/29 04:21:36;;;;;;;19.40;9.90;;;;;;;-1.55;70.61;101676.42;107609;1253;109462;-60
2023/01/29 04:24:06;;;;;;;18.70;10.00;;;;;;;-1.55;70.50;101678.71;107614;1253;108880;-61
2023/01/29 04:26:45;;;;;;;22.20;11.00;;;;;;;-1.56;70.66;101680.30;107532;1254;99192;-58
2023/01/29 04:29:38;;;;;;;17.40;9.20;;;;;;;-1.57;70.52;101676.98;107650;1253;99214;-60
2023/01/29 04:32:12;;;;;;;22.10;11.10;;;;;;;-1.57;70.42;101675.06;107678;1252;113684;-59
2023/01/29 04:35:09;;;;;;;19.60;10.70;;;;;;;-1.57;70.53;101676.10;107698;1253;108647;-61
2023/01/29 04:37:57;;;;;;;21.90;9.60;;;;;;;-1.58;70.41;101677.00;107581;1252;108814;-60
2023/01/29 04:40:32;;;;;;;18.50;9.60;;;;;;;-1.59;70.28;101678.44;107623;1254;99305;-60
2023/01/29 04:43:07;;;;;;;19.20;9.80;;;;;;;-1.58;70.59;101675.95;107643;1254;99208;-60
2023/01/29 04:46:00;;;;;;;19.10;10.60;;;;;;;-1.55;70.68;101677.48;107626;1255;114030;-60
2023/01/29 04:48:44;;;;;;;18.40;9.60;;;;;;;-1.50;70.78;101680.52;107558;1254;110273;-60
2023/01/29 04:51:23;;;;;;;19.50;10.00;;;;;;;-1.45;70.94;101676.36;107606;1253;108225;-60
2023/01/29 04:54:00;;;;;;;16.20;9.40;;;;;;;-1.42;70.77;101680.70;107597;1253;99178;-60
2023/01/29 04:56:42;;;;;;;14.10;8.60;;;;;;;-1.39;70.50;101683.25;107631;1254;99178;-60
2023/01/29 04:59:19;;;;;;;16.80;9.40;;;;;;;-1.34;70.64;101681.19;107632;1254;113633;-60
2023/01/29 05:01:48;;;;;;;17.10;9.60;;;;;;;-1.30;70.61;101684.98;107593;1254;108140;-59
2023/01/29 05:04:19;;;;;;;16.40;8.80;;;;;;;-1.25;70.54;101682.39;107601;1254;107287;-61
2023/01/29 05:06:49;;;;;;;19.40;7.80;;;;;;;-1.20;70.59;101687.03;107577;1253;99201;-60
2023/01/29 05:09:19;;;;;;;13.30;7.10;;;;;;;-1.14;70.60;101686.70;107598;1254;99148;-59
2023/01/29 05:11:49;;;;;;;13.10;6.90;;;;;;;-1.10;70.00;101691.88;107543;1254;113749;-59
2023/01/29 05:14:19;;;;;;;16.10;7.40;;;;;;;-1.07;70.09;101691.80;107649;1253;109611;-60
2023/01/29 05:16:55;;;;;;;22.00;9.10;;;;;;;-1.04;69.59;101689.62;107595;1253;108298;-59
2023/01/29 05:19:23;;;;;;;15.20;8.80;;;;;;;-1.04;69.01;101692.98;107605;1253;99154;-59
2023/01/29 05:21:52;;;;;;;13.20;7.70;;;;;;;-1.04;68.96;101695.45;107605;1254;99791;-60
2023/01/29 05:24:25;;;;;;;13.10;7.30;;;;;;;-1.02;68.89;101696.77;107463;1254;113430;-61
2023/01/29 05:29:46;;;;;;;11.70;7.50;;;;;;;-1.02;68.24;101694.66;107581;1254;107984;-59
2023/01/29 05:32:14;;;;;;;;;;;;;;;-1.03;68.36;101695.73;107637;1253;99068;-60
2023/01/29 05:34:43;;;;;;;14.00;7.60;;;;;;;-1.03;68.40;101692.23;107597;1253;99203;-59
2023/01/29 05:37:11;;;;;;;13.00;6.60;;;;;;;-1.02;67.87;101696.24;107633;1254;113180;-58
2023/01/29 05:39:40;;;;;;;12.20;7.30;;;;;;;-1.03;67.76;101695.91;107394;1253;109914;-60
2023/01/29 05:42:08;;;;;;;12.10;6.50;;;;;;;-1.03;67.97;101696.64;107528;1255;107155;-63
2023/01/29 05:44:37;;;;;;;12.40;7.10;;;;;;;-1.02;67.73;101700.65;107591;1254;99079;-60
2023/01/29 05:47:05;;;;;;;15.30;6.80;;;;;;;-1.02;67.90;101700.31;107586;1252;99856;-60
2023/01/29 05:49:34;;;;;;;16.50;7.50;;;;;;;-1.01;67.86;101701.52;107602;1254;113029;-59
2023/01/29 05:52:05;;;;;;;17.30;8.80;;;;;;;-1.01;68.02;101705.20;107505;1254;109208;-61
2023/01/29 05:54:34;;;;;;;21.30;7.60;;;;;;;-0.99;68.13;101704.64;107586;1252;107928;-61
2023/01/29 05:57:02;;;;;;;13.20;7.70;;;;;;;-0.97;67.79;101708.46;107573;1254;99195;-61
2023/01/29 05:59:31;;;;;;;16.00;8.00;;;;;;;-0.97;67.97;101707.58;107603;1253;99069;-60
2023/01/29 06:02:02;;;;;;;13.40;7.20;;;;;;;-0.96;67.92;101710.20;107619;1254;113526;-61
2023/01/29 06:04:31;;;;;;;12.50;7.30;;;;;;;-0.96;67.99;101711.42;107630;1252;111195;-59
2023/01/29 06:07:02;;;;;;;15.00;7.70;;;;;;;-0.95;68.14;101714.56;107574;1253;108996;-60
2023/01/29 06:09:30;;;;;;;13.70;8.50;;;;;;;-0.93;68.10;101711.00;107628;1256;99198;-60
2023/01/29 06:11:58;;;;;;;15.80;8.90;;;;;;;-0.94;67.60;101716.83;107596;1255;99733;-61
2023/01/29 06:14:27;;;;;;;17.60;9.30;;;;;;;-1.00;67.09;101720.16;107659;1253;112994;-60
2023/01/29 06:16:58;;;;;;;20.00;10.00;;;;;;;-1.05;66.96;101718.35;107506;1254;109221;-59
2023/01/29 06:19:26;;;;;;;18.80;9.80;;;;;;;-1.03;67.49;101718.64;107573;1255;109378;-59
2023/01/29 06:21:56;;;;;;;16.90;9.20;;;;;;;-1.01;67.74;101722.10;107603;1254;99182;-60
2023/01/29 06:24:25;;;;;;;19.70;10.40;;;;;;;-0.97;67.85;101724.81;107487;1252;99110;-60
2023/01/29 06:26:53;;;;;;;23.80;11.60;;;;;;;-0.92;68.09;101726.46;107611;1254;113141;-60
2023/01/29 06:29:22;;;;;;;23.90;10.80;;;;;;;-0.86;68.12;101730.73;107616;1254;110635;-59
2023/01/29 06:31:50;;;;;;;37.10;16.10;;;;;;;-0.85;68.06;101724.72;107593;1254;107914;-61
2023/01/29 06:34:19;;;;;;;22.60;11.60;;;;;;;-0.86;67.94;101725.61;107560;1254;99111;-62
2023/01/29 06:36:47;;;;;;;19.00;10.10;;;;;;;-0.85;68.13;101724.52;107695;1253;99100;-61
2023/01/29 06:39:15;;;;;;;19.50;10.50;;;;;;;-0.80;68.54;101727.39;107536;1253;113650;-60
2023/01/29 06:41:45;;;;;;;19.20;10.40;;;;;;;-0.76;68.65;101729.06;107619;1254;111196;-59
2023/01/29 06:44:14;;;;;;;20.80;10.60;;;;;;;-0.75;68.83;101729.21;107598;1253;106974;-59
2023/01/29 06:46:42;;;;;;;22.90;10.20;;;;;;;-0.78;68.78;101726.30;107560;1255;99316;-62
2023/01/29 06:49:11;;;;;;;21.60;11.00;;;;;;;-0.81;69.14;101733.57;107598;1253;99176;-59
2023/01/29 06:51:39;;;;;;;22.80;10.90;;;;;;;-0.84;69.41;101726.44;107621;1253;113310;-60
2023/01/29 06:54:11;;;;;;;23.30;9.80;;;;;;;-0.83;69.54;101726.41;107644;1254;110034;-61
2023/01/29 06:56:39;;;;;;;21.30;10.80;;;;;;;-0.82;69.87;101732.92;107519;1252;107738;-61
2023/01/29 06:59:07;;;;;;;24.10;11.10;;;;;;;-0.79;69.94;101730.36;107628;1255;99103;-61
2023/01/29 07:01:43;;;;;;;21.50;11.70;;;;;;;-0.72;70.06;101727.91;107513;1253;99208;-60
2023/01/29 07:04:11;;;;;;;20.30;10.70;;;;;;;-0.67;70.28;101726.52;107627;1254;111544;-63
2023/01/29 07:06:40;;;;;;;22.40;10.80;;;;;;;-0.57;70.46;101728.92;107638;1253;109237;-59
2023/01/29 07:09:11;;;;;;;19.50;10.90;;;;;;;-0.47;70.28;101726.90;107607;1252;107765;-59
2023/01/29 07:11:39;;;;;;;19.70;10.20;;;;;;;-0.42;70.05;101727.29;107535;1253;99735;-60
2023/01/29 07:14:08;;;;;;;19.00;9.80;;;;;;;-0.36;70.03;101725.20;107612;1254;99089;-63
2023/01/29 07:16:36;;;;;;;18.10;9.70;;;;;;;-0.32;70.01;101723.31;107582;1254;113492;-60
2023/01/29 07:19:05;;;;;;;17.60;10.30;;;;;;;-0.28;69.68;101724.63;107623;1254;110031;-59
2023/01/29 07:21:33;;;;;;;39.30;18.50;;;;;;;-0.22;69.87;101726.20;107610;1254;108118;-60
2023/01/29 07:24:02;;;;;;;15.80;9.10;;;;;;;-0.15;70.08;101722.31;107575;1254;99269;-60
2023/01/29 07:26:30;;;;;;;17.60;9.40;;;;;;;-0.09;69.90;101722.50;107607;1253;99206;-60
2023/01/29 07:28:58;;;;;;;16.70;9.00;;;;;;;-0.02;69.74;101721.04;107612;1254;113295;-60
2023/01/29 07:31:27;;;;;;;18.70;9.90;;;;;;;0.06;69.54;101715.17;107579;1254;109730;-59
2023/01/29 07:33:56;;;;;;;14.80;7.80;;;;;;;0.11;69.19;101717.52;107630;1254;107822;-59
2023/01/29 07:36:24;;;;;;;17.40;9.00;;;;;;;0.14;69.16;101719.17;107586;1253;99285;-61
2023/01/29 07:38:52;;;;;;;14.30;8.10;;;;;;;0.18;68.64;101719.41;107575;1255;99318;-61
2023/01/29 07:41:21;;;;;;;15.40;8.70;;;;;;;0.22;68.07;101714.90;107648;1253;113695;-60
2023/01/29 07:43:49;;;;;;;16.50;8.90;;;;;;;0.23;67.71;101713.61;107631;1254;110668;-60
2023/01/29 07:46:17;;;;;;;15.30;7.70;;;;;;;0.26;67.37;101717.77;107454;1257;108478;-61
2023/01/29 07:48:46;;;;;;;12.90;7.20;;;;;;;0.29;66.87;101720.50;107628;1253;99211;-60
2023/01/29 07:51:16;;;;;;;11.40;6.40;;;;;;;0.31;66.85;101720.24;107564;1254;99732;-61
2023/01/29 07:53:46;;;;;;;13.40;6.20;;;;;;;0.35;66.15;101725.43;107518;1252;112826;-59
2023/01/29 07:56:14;;;;;;;13.00;6.70;;;;;;;0.37;66.58;101724.86;107460;1253;111009;-60
2023/01/29 07:58:42;;;;;;;10.50;5.80;;;;;;;0.40;66.59;101724.94;107548;1254;107804;-61
2023/01/29 08:01:11;;;;;;;11.20;6.20;;;;;;;0.44;66.15;101729.05;107479;1254;99267;-61
2023/01/29 08:03:40;;;;;;;12.20;6.90;;;;;;;0.46;66.13;101728.81;107535;1253;99807;-61
2023/01/29 08:06:09;;;;;;;13.20;7.10;;;;;;;0.50;66.13;101733.10;107511;1254;112812;-59
2023/01/29 08:08:37;;;;;;;11.00;6.50;;;;;;;0.53;66.12;101736.02;107559;1252;110638;-61
2023/01/29 08:11:06;;;;;;;13.00;7.60;;;;;;;0.54;66.16;101733.69;107299;1254;108049;-59
2023/01/29 08:13:34;;;;;;;11.80;6.40;;;;;;;0.56;66.32;101736.44;107575;1254;99301;-63
2023/01/29 08:16:03;;;;;;;16.80;9.20;;;;;;;0.57;66.01;101742.95;107566;1254;99182;-61
2023/01/29 08:18:32;;;;;;;14.40;7.10;;;;;;;0.59;66.04;101738.45;107614;1254;113140;-60
2023/01/29 08:21:01;;;;;;;14.40;8.30;;;;;;;0.62;65.78;101744.20;107583;1256;109998;-60
2023/01/29 08:23:29;;;;;;;15.90;9.00;;;;;;;0.63;65.56;101749.09;107566;1252;107639;-59
2023/01/29 08:25:58;;;;;;;12.70;7.50;;;;;;;0.64;65.32;101752.44;107560;1254;99178;-63
2023/01/29 08:28:26;;;;;;;12.20;6.90;;;;;;;0.61;65.32;101756.42;107630;1254;99170;-60
2023/01/29 08:30:55;;;;;;;10.90;6.60;;;;;;;0.60;65.64;101756.25;107675;1253;112476;-59
2023/01/29 08:33:26;;;;;;;10.90;7.20;;;;;;;0.61;65.51;101755.69;107607;1253;110044;-59
2023/01/29 08:36:08;;;;;;;12.80;7.20;;;;;;;0.58;65.03;101757.20;107563;1252;108753;-59
2023/01/29 08:38:36;;;;;;;12.50;6.80;;;;;;;0.58;65.18;101755.27;107545;1254;101004;-60
2023/01/29 08:41:05;;;;;;;12.70;7.30;;;;;;;0.60;65.27;101759.10;107601;1254;99375;-61
2023/01/29 08:43:35;;;;;;;9.40;5.70;;;;;;;0.61;65.19;101762.23;107543;1254;113575;-60
2023/01/29 08:46:06;;;;;;;11.80;6.90;;;;;;;0.64;65.09;101763.73;107611;1255;109132;-60
2023/01/29 08:48:35;;;;;;;9.90;5.80;;;;;;;0.67;64.89;101765.95;107521;1254;108305;-59
2023/01/29 08:51:04;;;;;;;10.90;6.20;;;;;;;0.68;64.89;101763.61;107530;1254;99205;-60
2023/01/29 08:53:32;;;;;;;13.90;6.10;;;;;;;0.71;65.12;101766.33;107586;1254;99064;-61
2023/01/29 08:56:01;;;;;;;10.90;6.00;;;;;;;0.77;64.78;101762.11;107608;1254;114799;-61
2023/01/29 08:58:29;;;;;;;8.50;5.50;;;;;;;0.81;64.32;101758.11;107528;1253;110694;-59
2023/01/29 09:01:09;;;;;;;11.50;5.90;;;;;;;0.84;63.89;101754.98;107497;1252;108282;-58
2023/01/29 09:03:42;;;;;;;9.70;5.70;;;;;;;0.84;63.75;101751.98;107442;1253;99177;-60
2023/01/29 09:06:13;;;;;;;9.60;5.90;;;;;;;0.82;63.78;101753.30;107530;1254;99191;-61
2023/01/29 09:08:41;;;;;;;10.10;5.40;;;;;;;0.80;63.27;101749.12;107581;1252;114127;-61
2023/01/29 09:11:10;;;;;;;10.50;6.40;;;;;;;0.81;63.37;101750.13;107427;1254;109673;-62
2023/01/29 09:13:38;;;;;;;8.50;5.60;;;;;;;0.81;63.21;101746.96;107532;1253;107920;-60
2023/01/29 09:16:07;;;;;;;10.50;5.40;;;;;;;0.79;63.02;101747.73;107552;1254;99297;-62
2023/01/29 09:18:35;;;;;;;8.90;4.80;;;;;;;0.76;63.47;101748.53;107542;1253;99201;-60
2023/01/29 09:21:04;;;;;;;10.00;5.90;;;;;;;0.80;63.74;101752.65;107547;1254;113170;-61
2023/01/29 09:23:33;;;;;;;13.20;6.10;;;;;;;0.82;63.88;101750.31;107487;1253;110055;-59
2023/01/29 09:26:01;;;;;;;9.80;5.90;;;;;;;0.85;63.94;101753.57;107477;1259;108256;-59
2023/01/29 09:28:29;;;;;;;8.80;5.30;;;;;;;0.86;63.45;101746.98;107513;1255;99316;-59
2023/01/29 09:31:01;;;;;;;12.50;5.70;;;;;;;0.86;63.46;101748.75;107660;1255;99338;-61
2023/01/29 09:33:31;;;;;;;7.80;5.10;;;;;;;0.82;63.19;101743.74;107626;1252;112209;-59
2023/01/29 09:36:01;;;;;;;11.60;6.80;;;;;;;0.82;63.28;101741.11;107620;1252;109978;-60
2023/01/29 09:38:30;;;;;;;10.50;5.70;;;;;;;0.83;63.39;101738.94;107551;1253;107740;-61
2023/01/29 09:41:01;;;;;;;9.60;5.60;;;;;;;0.84;63.11;101739.29;107432;1254;99191;-59
2023/01/29 09:43:53;;;;;;;9.50;5.70;;;;;;;0.82;63.08;101734.58;107499;1254;99676;-61
2023/01/29 09:46:38;;;;;;;15.90;6.50;;;;;;;0.78;63.00;101736.64;107570;1254;112905;-59
2023/01/29 09:49:20;;;;;;;11.00;6.20;;;;;;;0.79;63.12;101730.77;107551;1253;109282;-59
2023/01/29 09:51:52;;;;;;;11.40;7.00;;;;;;;0.79;63.15;101730.61;107481;1256;107870;-60
2023/01/29 09:54:29;;;;;;;10.60;6.20;;;;;;;0.81;63.33;101732.13;107540;1252;99194;-59
2023/01/29 09:57:00;;;;;;;17.00;8.00;;;;;;;0.81;63.04;101733.90;107533;1254;99266;-60
2023/01/29 09:59:31;;;;;;;12.80;6.10;;;;;;;0.82;63.29;101733.15;107553;1253;111932;-60
2023/01/29 10:02:36;;;;;;;13.60;7.30;;;;;;;0.88;63.22;101726.60;107562;1256;110038;-61
2023/01/29 10:05:31;;;;;;;7.50;5.10;;;;;;;0.92;63.02;101720.11;107566;1256;108203;-60
2023/01/29 10:08:02;;;;;;;11.70;6.30;;;;;;;0.96;62.57;101719.99;107418;1253;99169;-59
2023/01/29 10:10:56;;;;;;;14.00;6.90;;;;;;;0.94;62.54;101720.95;107466;1253;99819;-59
2023/01/29 10:13:51;;;;;;;10.40;5.60;;;;;;;0.96;62.27;101714.70;107525;1253;112966;-59
2023/01/29 10:16:42;;;;;;;11.30;5.30;;;;;;;0.98;61.75;101714.46;107571;1253;108960;-61
2023/01/29 10:19:38;;;;;;;8.60;5.00;;;;;;;1.01;61.66;101711.17;107549;1256;107964;-58
2023/01/29 10:22:25;;;;;;;9.90;5.20;;;;;;;1.05;61.98;101714.23;107580;1254;99185;-61
2023/01/29 10:24:59;;;;;;;12.20;6.50;;;;;;;1.09;61.62;101707.38;107569;1252;99092;-62
2023/01/29 10:27:38;;;;;;;11.00;6.70;;;;;;;1.16;61.25;101706.95;107526;1254;112793;-59
2023/01/29 10:30:22;;;;;;;11.20;6.20;;;;;;;1.19;61.07;101706.84;107441;1256;108573;-59
2023/01/29 10:32:53;;;;;;;11.00;5.30;;;;;;;1.22;60.44;101701.95;107383;1254;108346;-60
2023/01/29 10:35:28;;;;;;;8.50;5.10;;;;;;;1.20;60.06;101698.31;107388;1255;99177;-61
2023/01/29 10:38:10;;;;;;;14.60;5.20;;;;;;;1.22;60.23;101697.73;107450;1256;99202;-60
2023/01/29 10:41:17;;;;;;;8.90;4.20;;;;;;;1.23;60.37;101699.27;107328;1253;113787;-61
2023/01/29 10:43:46;;;;;;;9.00;4.90;;;;;;;1.23;59.74;101701.56;106719;1254;736310;-62
2023/01/29 10:46:46;;;;;;;9.70;5.40;;;;;;;1.22;60.51;101700.75;107507;1258;107961;-61
2023/01/29 10:49:24;;;;;;;9.10;5.20;;;;;;;1.21;60.45;101699.35;107513;1254;99175;-61
2023/01/29 10:52:02;;;;;;;8.40;4.90;;;;;;;1.22;60.04;101698.26;107512;1254;99190;-60
2023/01/29 10:54:31;;;;;;;10.30;5.30;;;;;;;1.21;59.55;101692.83;107540;1254;113228;-59
2023/01/29 10:57:05;;;;;;;9.00;4.80;;;;;;;1.21;59.52;101690.34;107362;1253;109873;-61
2023/01/29 11:00:06;;;;;;;11.90;5.50;;;;;;;1.20;59.92;101689.51;107509;1253;108228;-61
2023/01/29 11:02:34;;;;;;;8.90;5.80;;;;;;;1.18;60.06;101684.09;107462;1254;99248;-62
2023/01/29 11:05:03;;;;;;;12.70;6.00;;;;;;;1.17;59.91;101681.99;107482;1254;99114;-59
2023/01/29 11:07:31;;;;;;;11.80;4.90;;;;;;;1.17;60.27;101682.87;107356;1257;112895;-59
2023/01/29 11:10:11;;;;;;;7.80;4.50;;;;;;;1.18;60.28;101680.91;107515;1253;109259;-61
2023/01/29 11:12:40;;;;;;;11.80;5.90;;;;;;;1.19;59.99;101675.73;107417;1253;107618;-60
2023/01/29 11:15:17;;;;;;;9.60;6.00;;;;;;;1.17;60.05;101679.36;107571;1253;99186;-62
2023/01/29 11:18:04;;;;;;;10.80;5.60;;;;;;;1.17;60.57;101677.77;107518;1254;99080;-61
2023/01/29 11:20:33;;;;;;;10.90;5.30;;;;;;;1.19;60.62;101674.52;107583;1254;113414;-60
2023/01/29 11:23:01;;;;;;;10.20;5.80;;;;;;;1.18;60.90;101671.89;107546;1254;110039;-59
2023/01/29 11:25:34;;;;;;;11.00;5.40;;;;;;;1.19;60.58;101663.92;107551;1256;107825;-60
2023/01/29 11:28:04;;;;;;;11.10;5.80;;;;;;;1.19;60.68;101663.02;107540;1254;99179;-60
2023/01/29 11:30:38;;;;;;;9.10;5.30;;;;;;;1.20;60.99;101665.45;107536;1253;99804;-59
2023/01/29 11:33:22;;;;;;;8.40;5.40;;;;;;;1.18;61.31;101671.20;107404;1252;113795;-60
2023/01/29 11:35:56;;;;;;;11.60;6.00;;;;;;;1.18;61.29;101666.77;107562;1252;109322;-59
2023/01/29 11:38:27;;;;;;;9.70;5.90;;;;;;;1.17;61.09;101664.70;107505;1254;108425;-60
2023/01/29 11:41:13;;;;;;;9.40;5.10;;;;;;;1.17;61.05;101666.27;107396;1257;99202;-60
2023/01/29 11:43:41;;;;;;;11.80;5.60;;;;;;;1.18;61.02;101665.17;107482;1254;99190;-61
2023/01/29 11:46:14;;;;;;;9.50;5.60;;;;;;;1.20;61.08;101664.92;107570;1253;112550;-60
2023/01/29 11:48:49;;;;;;;11.70;5.60;;;;;;;1.19;61.10;101660.74;107556;1254;110146;-60
2023/01/29 11:51:26;;;;;;;11.20;6.00;;;;;;;1.19;61.37;101661.63;107509;1258;109031;-60
2023/01/29 11:53:58;;;;;;;7.80;4.70;;;;;;;1.24;61.07;101661.80;107543;1253;99070;-60
2023/01/29 11:56:47;;;;;;;9.70;5.20;;;;;;;1.26;61.34;101654.65;107573;1254;99291;-60
2023/01/29 11:59:36;;;;;;;11.20;5.50;;;;;;;1.28;60.81;101656.52;107579;1254;112617;-60
2023/01/29 12:02:30;;;;;;;8.20;4.90;;;;;;;1.30;60.75;101654.68;107560;1254;110063;-61
2023/01/29 12:05:12;;;;;;;11.20;5.70;;;;;;;1.32;60.48;101658.70;107403;1253;108715;-59
2023/01/29 12:07:44;;;;;;;7.40;4.60;;;;;;;1.30;60.81;101656.85;107475;1254;99173;-62